sensor_id;sensor_type;location;lat;lon;timestamp;P1;durP1;ratioP1;P2;durP2;ratioP2
15764;SDS011;7983;50.744;7.086;2023-05-10T00:01:43;0.80;;;0.73;;
15764;SDS011;7983;50.744;7.086;2023-05-10T00:04:11;0.70;;;0.60;;
15764;SDS011;7983;50.744;7.086;2023-05-10T00:06:36;1.63;;;0.60;;
15764;SDS011;7983;50.744;7.086;2023-05-10T00:09:02;0.43;;;0.40;;
15764;SDS011;7983;50.744;7.086;2023-05-10T00:11:28;0.80;;;0.70;;
15764;SDS011;7983;50.744;7.086;2023-05-10T00:13:56;0.50;;;0.50;;
15764;SDS011;7983;50.744;7.086;2023-05-10T00:16:22;0.75;;;0.50;;
15764;SDS011;7983;50.744;7.086;2023-05-10T00:18:52;0.63;;;0.60;;
15764;SDS011;7983;50.744;7.086;2023-05-10T00:21:20;0.60;;;0.60;;
15764;SDS011;7983;50.744;7.086;2023-05-10T00:23:46;0.75;;;0.70;;
15764;SDS011;7983;50.744;7.086;2023-05-10T00:26:11;1.15;;;1.02;;
15764;SDS011;7983;50.744;7.086;2023-05-10T00:28:37;0.70;;;0.70;;
15764;SDS011;7983;50.744;7.086;2023-05-10T00:31:03;1.75;;;0.70;;
15764;SDS011;7983;50.744;7.086;2023-05-10T00:33:30;0.60;;;0.60;;
15764;SDS011;7983;50.744;7.086;2023-05-10T00:35:56;0.80;;;0.70;;
15764;SDS011;7983;50.744;7.086;2023-05-10T00:38:22;0.75;;;0.70;;
15764;SDS011;7983;50.744;7.086;2023-05-10T00:40:47;0.70;;;0.70;;
15764;SDS011;7983;50.744;7.086;2023-05-10T00:43:15;0.60;;;0.60;;
15764;SDS011;7983;50.744;7.086;2023-05-10T00:45:41;1.20;;;0.63;;
15764;SDS011;7983;50.744;7.086;2023-05-10T00:48:09;0.90;;;0.73;;
15764;SDS011;7983;50.744;7.086;2023-05-10T00:50:35;1.80;;;0.70;;
15764;SDS011;7983;50.744;7.086;2023-05-10T00:53:05;2.95;;;0.60;;
15764;SDS011;7983;50.744;7.086;2023-05-10T00:55:32;0.70;;;0.50;;
15764;SDS011;7983;50.744;7.086;2023-05-10T00:57:58;0.63;;;0.60;;
15764;SDS011;7983;50.744;7.086;2023-05-10T01:00:23;0.82;;;0.50;;
15764;SDS011;7983;50.744;7.086;2023-05-10T01:02:49;0.95;;;0.60;;
15764;SDS011;7983;50.744;7.086;2023-05-10T01:05:18;1.02;;;0.50;;
15764;SDS011;7983;50.744;7.086;2023-05-10T01:07:46;0.70;;;0.60;;
15764;SDS011;7983;50.744;7.086;2023-05-10T01:10:14;0.70;;;0.70;;
15764;SDS011;7983;50.744;7.086;2023-05-10T01:12:40;1.35;;;0.70;;
15764;SDS011;7983;50.744;7.086;2023-05-10T01:15:10;1.25;;;0.60;;
15764;SDS011;7983;50.744;7.086;2023-05-10T01:17:38;1.70;;;0.68;;
15764;SDS011;7983;50.744;7.086;2023-05-10T01:20:08;1.08;;;0.85;;
15764;SDS011;7983;50.744;7.086;2023-05-10T01:22:40;1.67;;;0.70;;
15764;SDS011;7983;50.744;7.086;2023-05-10T01:34:16;1.13;;;0.90;;
15764;SDS011;7983;50.744;7.086;2023-05-10T01:36:42;0.70;;;0.70;;
15764;SDS011;7983;50.744;7.086;2023-05-10T01:41:51;1.95;;;0.80;;
15764;SDS011;7983;50.744;7.086;2023-05-10T01:49:52;1.75;;;0.77;;
15764;SDS011;7983;50.744;7.086;2023-05-10T01:52:22;1.13;;;0.80;;
15764;SDS011;7983;50.744;7.086;2023-05-10T01:54:56;1.13;;;0.80;;
15764;SDS011;7983;50.744;7.086;2023-05-10T01:57:35;2.00;;;0.80;;
15764;SDS011;7983;50.744;7.086;2023-05-10T02:00:06;0.82;;;0.77;;
15764;SDS011;7983;50.744;7.086;2023-05-10T02:02:33;1.33;;;0.82;;
15764;SDS011;7983;50.744;7.086;2023-05-10T02:05:05;1.65;;;0.70;;
15764;SDS011;7983;50.744;7.086;2023-05-10T02:07:36;0.85;;;0.70;;
15764;SDS011;7983;50.744;7.086;2023-05-10T02:10:03;0.93;;;0.77;;
15764;SDS011;7983;50.744;7.086;2023-05-10T02:12:31;1.25;;;0.85;;
15764;SDS011;7983;50.744;7.086;2023-05-10T02:15:03;3.05;;;0.75;;
15764;SDS011;7983;50.744;7.086;2023-05-10T02:17:32;0.90;;;0.80;;
15764;SDS011;7983;50.744;7.086;2023-05-10T02:20:02;1.15;;;0.80;;
15764;SDS011;7983;50.744;7.086;2023-05-10T02:22:32;1.02;;;0.82;;
15764;SDS011;7983;50.744;7.086;2023-05-10T02:25:02;0.90;;;0.80;;
15764;SDS011;7983;50.744;7.086;2023-05-10T02:27:31;1.42;;;0.90;;
15764;SDS011;7983;50.744;7.086;2023-05-10T02:30:01;1.25;;;0.98;;
15764;SDS011;7983;50.744;7.086;2023-05-10T02:32:32;0.90;;;0.75;;
15764;SDS011;7983;50.744;7.086;2023-05-10T02:34:59;0.80;;;0.80;;
15764;SDS011;7983;50.744;7.086;2023-05-10T02:37:29;1.77;;;0.75;;
15764;SDS011;7983;50.744;7.086;2023-05-10T02:39:55;0.95;;;0.85;;
15764;SDS011;7983;50.744;7.086;2023-05-10T02:42:26;0.80;;;0.80;;
15764;SDS011;7983;50.744;7.086;2023-05-10T02:44:59;1.33;;;0.90;;
15764;SDS011;7983;50.744;7.086;2023-05-10T02:47:32;1.98;;;1.05;;
15764;SDS011;7983;50.744;7.086;2023-05-10T02:49:58;1.10;;;1.00;;
15764;SDS011;7983;50.744;7.086;2023-05-10T02:52:30;1.20;;;1.10;;
15764;SDS011;7983;50.744;7.086;2023-05-10T02:55:12;1.00;;;0.90;;
15764;SDS011;7983;50.744;7.086;2023-05-10T02:57:44;1.13;;;0.93;;
15764;SDS011;7983;50.744;7.086;2023-05-10T03:00:15;1.92;;;0.90;;
15764;SDS011;7983;50.744;7.086;2023-05-10T03:02:41;1.00;;;0.90;;
15764;SDS011;7983;50.744;7.086;2023-05-10T03:05:07;0.95;;;0.80;;
15764;SDS011;7983;50.744;7.086;2023-05-10T03:07:33;0.88;;;0.73;;
15764;SDS011;7983;50.744;7.086;2023-05-10T03:10:01;1.70;;;0.90;;
15764;SDS011;7983;50.744;7.086;2023-05-10T03:18:01;1.30;;;1.08;;
15764;SDS011;7983;50.744;7.086;2023-05-10T03:20:35;1.38;;;1.15;;
15764;SDS011;7983;50.744;7.086;2023-05-10T03:25:43;1.95;;;1.20;;
15764;SDS011;7983;50.744;7.086;2023-05-10T03:28:15;1.38;;;1.17;;
15764;SDS011;7983;50.744;7.086;2023-05-10T03:30:44;2.10;;;1.58;;
15764;SDS011;7983;50.744;7.086;2023-05-10T03:33:10;1.80;;;1.60;;
15764;SDS011;7983;50.744;7.086;2023-05-10T03:35:37;2.88;;;2.20;;
15764;SDS011;7983;50.744;7.086;2023-05-10T03:38:03;2.25;;;1.92;;
15764;SDS011;7983;50.744;7.086;2023-05-10T03:40:29;2.47;;;1.60;;
15764;SDS011;7983;50.744;7.086;2023-05-10T03:42:59;2.55;;;1.90;;
15764;SDS011;7983;50.744;7.086;2023-05-10T03:45:24;2.75;;;2.10;;
15764;SDS011;7983;50.744;7.086;2023-05-10T03:47:55;3.03;;;2.15;;
15764;SDS011;7983;50.744;7.086;2023-05-10T03:50:22;2.13;;;1.77;;
15764;SDS011;7983;50.744;7.086;2023-05-10T03:52:47;2.78;;;2.10;;
15764;SDS011;7983;50.744;7.086;2023-05-10T03:55:13;2.45;;;2.05;;
15764;SDS011;7983;50.744;7.086;2023-05-10T03:57:39;3.70;;;2.10;;
15764;SDS011;7983;50.744;7.086;2023-05-10T04:00:09;2.00;;;1.80;;
15764;SDS011;7983;50.744;7.086;2023-05-10T04:02:36;2.17;;;1.77;;
15764;SDS011;7983;50.744;7.086;2023-05-10T04:05:04;2.92;;;2.30;;
15764;SDS011;7983;50.744;7.086;2023-05-10T04:07:30;2.33;;;2.13;;
15764;SDS011;7983;50.744;7.086;2023-05-10T04:09:55;2.83;;;2.50;;
15764;SDS011;7983;50.744;7.086;2023-05-10T04:12:21;3.75;;;2.60;;
15764;SDS011;7983;50.744;7.086;2023-05-10T04:14:49;3.38;;;2.85;;
15764;SDS011;7983;50.744;7.086;2023-05-10T04:17:14;3.15;;;2.80;;
15764;SDS011;7983;50.744;7.086;2023-05-10T04:19:42;5.25;;;3.60;;
15764;SDS011;7983;50.744;7.086;2023-05-10T04:22:07;4.15;;;3.60;;
15764;SDS011;7983;50.744;7.086;2023-05-10T04:24:33;5.15;;;4.03;;
15764;SDS011;7983;50.744;7.086;2023-05-10T04:27:02;5.03;;;4.18;;
15764;SDS011;7983;50.744;7.086;2023-05-10T04:29:27;5.60;;;4.53;;
15764;SDS011;7983;50.744;7.086;2023-05-10T04:31:53;6.05;;;4.70;;
15764;SDS011;7983;50.744;7.086;2023-05-10T04:34:25;6.63;;;4.97;;
15764;SDS011;7983;50.744;7.086;2023-05-10T04:36:50;6.82;;;5.15;;
15764;SDS011;7983;50.744;7.086;2023-05-10T04:39:16;6.03;;;5.20;;
15764;SDS011;7983;50.744;7.086;2023-05-10T04:41:42;6.20;;;5.18;;
15764;SDS011;7983;50.744;7.086;2023-05-10T04:44:13;6.80;;;5.38;;
15764;SDS011;7983;50.744;7.086;2023-05-10T04:46:41;7.88;;;6.15;;
15764;SDS011;7983;50.744;7.086;2023-05-10T04:49:07;8.90;;;5.65;;
15764;SDS011;7983;50.744;7.086;2023-05-10T04:51:35;6.80;;;5.93;;
15764;SDS011;7983;50.744;7.086;2023-05-10T04:54:00;8.73;;;6.47;;
15764;SDS011;7983;50.744;7.086;2023-05-10T04:56:26;9.18;;;6.53;;
15764;SDS011;7983;50.744;7.086;2023-05-10T04:58:51;8.45;;;6.32;;
15764;SDS011;7983;50.744;7.086;2023-05-10T05:01:19;8.52;;;6.95;;
15764;SDS011;7983;50.744;7.086;2023-05-10T05:03:45;8.75;;;6.68;;
15764;SDS011;7983;50.744;7.086;2023-05-10T05:06:11;9.48;;;7.07;;
15764;SDS011;7983;50.744;7.086;2023-05-10T05:08:39;11.05;;;6.57;;
15764;SDS011;7983;50.744;7.086;2023-05-10T05:11:04;9.93;;;6.75;;
15764;SDS011;7983;50.744;7.086;2023-05-10T05:13:32;10.30;;;7.35;;
15764;SDS011;7983;50.744;7.086;2023-05-10T05:16:01;9.35;;;7.10;;
15764;SDS011;7983;50.744;7.086;2023-05-10T05:18:30;10.48;;;6.75;;
15764;SDS011;7983;50.744;7.086;2023-05-10T05:20:55;8.63;;;6.80;;
15764;SDS011;7983;50.744;7.086;2023-05-10T05:23:21;9.63;;;7.63;;
15764;SDS011;7983;50.744;7.086;2023-05-10T05:25:54;8.68;;;7.38;;
15764;SDS011;7983;50.744;7.086;2023-05-10T05:28:22;9.50;;;7.85;;
15764;SDS011;7983;50.744;7.086;2023-05-10T05:30:47;8.45;;;6.60;;
15764;SDS011;7983;50.744;7.086;2023-05-10T05:33:13;7.90;;;6.78;;
15764;SDS011;7983;50.744;7.086;2023-05-10T05:35:44;9.48;;;7.25;;
15764;SDS011;7983;50.744;7.086;2023-05-10T05:38:15;10.15;;;7.25;;
15764;SDS011;7983;50.744;7.086;2023-05-10T05:40:45;9.05;;;6.80;;
15764;SDS011;7983;50.744;7.086;2023-05-10T05:43:13;7.50;;;6.25;;
15764;SDS011;7983;50.744;7.086;2023-05-10T05:45:39;9.13;;;6.88;;
15764;SDS011;7983;50.744;7.086;2023-05-10T05:48:07;9.65;;;6.50;;
15764;SDS011;7983;50.744;7.086;2023-05-10T05:50:33;7.63;;;6.15;;
15764;SDS011;7983;50.744;7.086;2023-05-10T05:52:58;8.05;;;6.00;;
15764;SDS011;7983;50.744;7.086;2023-05-10T05:55:24;7.55;;;6.35;;
15764;SDS011;7983;50.744;7.086;2023-05-10T05:57:53;8.07;;;6.18;;
15764;SDS011;7983;50.744;7.086;2023-05-10T06:00:21;8.77;;;6.22;;
15764;SDS011;7983;50.744;7.086;2023-05-10T06:02:47;6.88;;;5.45;;
15764;SDS011;7983;50.744;7.086;2023-05-10T06:05:13;6.55;;;5.75;;
15764;SDS011;7983;50.744;7.086;2023-05-10T06:07:39;7.22;;;5.72;;
15764;SDS011;7983;50.744;7.086;2023-05-10T06:10:07;7.45;;;5.63;;
15764;SDS011;7983;50.744;7.086;2023-05-10T06:12:33;7.93;;;6.00;;
15764;SDS011;7983;50.744;7.086;2023-05-10T06:15:02;7.25;;;5.22;;
15764;SDS011;7983;50.744;7.086;2023-05-10T06:17:28;6.50;;;5.60;;
15764;SDS011;7983;50.744;7.086;2023-05-10T06:19:53;8.55;;;5.15;;
15764;SDS011;7983;50.744;7.086;2023-05-10T06:22:19;7.03;;;5.55;;
15764;SDS011;7983;50.744;7.086;2023-05-10T06:24:47;6.03;;;4.95;;
15764;SDS011;7983;50.744;7.086;2023-05-10T06:27:13;8.57;;;5.13;;
15764;SDS011;7983;50.744;7.086;2023-05-10T06:29:39;5.57;;;4.93;;
15764;SDS011;7983;50.744;7.086;2023-05-10T06:32:04;7.85;;;5.60;;
15764;SDS011;7983;50.744;7.086;2023-05-10T06:34:32;6.47;;;5.20;;
15764;SDS011;7983;50.744;7.086;2023-05-10T06:36:58;6.63;;;4.47;;
15764;SDS011;7983;50.744;7.086;2023-05-10T06:39:23;4.70;;;3.88;;
15764;SDS011;7983;50.744;7.086;2023-05-10T06:41:51;5.90;;;4.10;;
15764;SDS011;7983;50.744;7.086;2023-05-10T06:44:19;4.45;;;3.70;;
15764;SDS011;7983;50.744;7.086;2023-05-10T06:46:45;5.07;;;3.58;;
15764;SDS011;7983;50.744;7.086;2023-05-10T06:49:10;4.18;;;3.40;;
15764;SDS011;7983;50.744;7.086;2023-05-10T06:51:36;3.83;;;3.40;;
15764;SDS011;7983;50.744;7.086;2023-05-10T06:54:06;5.35;;;3.17;;
15764;SDS011;7983;50.744;7.086;2023-05-10T06:56:34;3.75;;;3.20;;
15764;SDS011;7983;50.744;7.086;2023-05-10T06:59:00;3.97;;;3.10;;
15764;SDS011;7983;50.744;7.086;2023-05-10T07:01:28;4.45;;;3.08;;
15764;SDS011;7983;50.744;7.086;2023-05-10T07:03:53;4.15;;;3.20;;
15764;SDS011;7983;50.744;7.086;2023-05-10T07:06:24;4.80;;;3.17;;
15764;SDS011;7983;50.744;7.086;2023-05-10T07:08:50;4.07;;;2.97;;
15764;SDS011;7983;50.744;7.086;2023-05-10T07:11:15;3.85;;;3.03;;
15764;SDS011;7983;50.744;7.086;2023-05-10T07:13:41;3.22;;;2.90;;
15764;SDS011;7983;50.744;7.086;2023-05-10T07:16:09;4.75;;;2.90;;
15764;SDS011;7983;50.744;7.086;2023-05-10T07:18:35;4.20;;;2.95;;
15764;SDS011;7983;50.744;7.086;2023-05-10T07:21:01;3.08;;;2.78;;
15764;SDS011;7983;50.744;7.086;2023-05-10T07:23:29;3.80;;;2.53;;
15764;SDS011;7983;50.744;7.086;2023-05-10T07:25:55;3.92;;;3.00;;
15764;SDS011;7983;50.744;7.086;2023-05-10T07:28:22;3.60;;;2.78;;
15764;SDS011;7983;50.744;7.086;2023-05-10T07:30:49;4.00;;;2.85;;
15764;SDS011;7983;50.744;7.086;2023-05-10T07:33:15;4.15;;;2.72;;
15764;SDS011;7983;50.744;7.086;2023-05-10T07:35:40;2.65;;;2.40;;
15764;SDS011;7983;50.744;7.086;2023-05-10T07:38:06;2.60;;;2.40;;
15764;SDS011;7983;50.744;7.086;2023-05-10T07:40:36;2.85;;;2.30;;
15764;SDS011;7983;50.744;7.086;2023-05-10T07:43:04;3.97;;;2.40;;
15764;SDS011;7983;50.744;7.086;2023-05-10T07:45:29;3.35;;;2.25;;
15764;SDS011;7983;50.744;7.086;2023-05-10T07:47:55;3.25;;;2.67;;
15764;SDS011;7983;50.744;7.086;2023-05-10T07:50:21;3.78;;;2.50;;
15764;SDS011;7983;50.744;7.086;2023-05-10T07:52:49;2.90;;;2.40;;
15764;SDS011;7983;50.744;7.086;2023-05-10T07:55:14;4.57;;;2.50;;
15764;SDS011;7983;50.744;7.086;2023-05-10T07:57:42;2.92;;;2.38;;
15764;SDS011;7983;50.744;7.086;2023-05-10T08:00:08;2.90;;;2.28;;
15764;SDS011;7983;50.744;7.086;2023-05-10T08:02:37;2.95;;;2.47;;
15764;SDS011;7983;50.744;7.086;2023-05-10T08:05:03;2.60;;;2.40;;
15764;SDS011;7983;50.744;7.086;2023-05-10T08:07:30;3.08;;;2.45;;
15764;SDS011;7983;50.744;7.086;2023-05-10T08:09:56;3.03;;;2.40;;
15764;SDS011;7983;50.744;7.086;2023-05-10T08:12:21;2.83;;;2.35;;
15764;SDS011;7983;50.744;7.086;2023-05-10T08:14:49;2.85;;;2.22;;
15764;SDS011;7983;50.744;7.086;2023-05-10T08:17:15;3.00;;;2.35;;
15764;SDS011;7983;50.744;7.086;2023-05-10T08:19:40;3.35;;;2.40;;
15764;SDS011;7983;50.744;7.086;2023-05-10T08:22:06;2.53;;;2.28;;
15764;SDS011;7983;50.744;7.086;2023-05-10T08:24:32;4.10;;;2.58;;
15764;SDS011;7983;50.744;7.086;2023-05-10T08:27:10;2.95;;;2.20;;
15764;SDS011;7983;50.744;7.086;2023-05-10T08:29:38;3.78;;;2.85;;
15764;SDS011;7983;50.744;7.086;2023-05-10T08:32:06;3.47;;;2.47;;
15764;SDS011;7983;50.744;7.086;2023-05-10T08:34:32;2.60;;;2.40;;
15764;SDS011;7983;50.744;7.086;2023-05-10T08:37:00;4.78;;;2.42;;
15764;SDS011;7983;50.744;7.086;2023-05-10T08:39:28;5.18;;;2.50;;
15764;SDS011;7983;50.744;7.086;2023-05-10T08:41:59;2.70;;;2.25;;
15764;SDS011;7983;50.744;7.086;2023-05-10T08:44:28;2.40;;;2.05;;
15764;SDS011;7983;50.744;7.086;2023-05-10T08:46:58;2.97;;;2.47;;
15764;SDS011;7983;50.744;7.086;2023-05-10T08:49:28;2.85;;;2.30;;
15764;SDS011;7983;50.744;7.086;2023-05-10T08:51:59;3.42;;;2.08;;
15764;SDS011;7983;50.744;7.086;2023-05-10T08:54:29;1.98;;;1.77;;
15764;SDS011;7983;50.744;7.086;2023-05-10T08:56:56;2.08;;;1.80;;
15764;SDS011;7983;50.744;7.086;2023-05-10T08:59:22;2.47;;;2.00;;
15764;SDS011;7983;50.744;7.086;2023-05-10T09:01:48;2.25;;;2.00;;
15764;SDS011;7983;50.744;7.086;2023-05-10T09:04:16;2.85;;;1.80;;
15764;SDS011;7983;50.744;7.086;2023-05-10T09:06:43;1.75;;;1.60;;
15764;SDS011;7983;50.744;7.086;2023-05-10T09:09:09;2.08;;;1.73;;
15764;SDS011;7983;50.744;7.086;2023-05-10T09:11:35;1.85;;;1.48;;
15764;SDS011;7983;50.744;7.086;2023-05-10T09:14:03;1.60;;;1.48;;
15764;SDS011;7983;50.744;7.086;2023-05-10T09:16:29;1.60;;;1.48;;
15764;SDS011;7983;50.744;7.086;2023-05-10T09:18:55;1.15;;;1.02;;
15764;SDS011;7983;50.744;7.086;2023-05-10T09:21:23;1.63;;;1.27;;
15764;SDS011;7983;50.744;7.086;2023-05-10T09:23:52;1.55;;;1.35;;
15764;SDS011;7983;50.744;7.086;2023-05-10T09:26:25;1.63;;;1.25;;
15764;SDS011;7983;50.744;7.086;2023-05-10T09:28:52;2.28;;;1.20;;
15764;SDS011;7983;50.744;7.086;2023-05-10T09:31:22;1.17;;;0.88;;
15764;SDS011;7983;50.744;7.086;2023-05-10T09:33:50;1.40;;;1.23;;
15764;SDS011;7983;50.744;7.086;2023-05-10T09:36:16;0.80;;;0.80;;
15764;SDS011;7983;50.744;7.086;2023-05-10T09:38:48;1.20;;;1.08;;
15764;SDS011;7983;50.744;7.086;2023-05-10T09:41:19;3.85;;;2.10;;
15764;SDS011;7983;50.744;7.086;2023-05-10T09:43:46;2.10;;;1.58;;
15764;SDS011;7983;50.744;7.086;2023-05-10T09:46:12;1.10;;;1.00;;
15764;SDS011;7983;50.744;7.086;2023-05-10T09:48:45;1.70;;;1.02;;
15764;SDS011;7983;50.744;7.086;2023-05-10T09:51:20;1.23;;;0.90;;
15764;SDS011;7983;50.744;7.086;2023-05-10T09:53:49;2.08;;;1.15;;
15764;SDS011;7983;50.744;7.086;2023-05-10T09:56:42;1.00;;;0.90;;
15764;SDS011;7983;50.744;7.086;2023-05-10T09:59:11;1.30;;;0.93;;
15764;SDS011;7983;50.744;7.086;2023-05-10T10:01:38;1.10;;;0.98;;
15764;SDS011;7983;50.744;7.086;2023-05-10T10:04:04;1.30;;;1.00;;
15764;SDS011;7983;50.744;7.086;2023-05-10T10:06:39;1.23;;;1.13;;
15764;SDS011;7983;50.744;7.086;2023-05-10T10:09:10;1.83;;;1.42;;
15764;SDS011;7983;50.744;7.086;2023-05-10T10:11:36;2.58;;;1.83;;
15764;SDS011;7983;50.744;7.086;2023-05-10T10:14:03;2.60;;;1.90;;
15764;SDS011;7983;50.744;7.086;2023-05-10T10:16:30;4.05;;;2.30;;
15764;SDS011;7983;50.744;7.086;2023-05-10T10:18:56;4.63;;;2.88;;
15764;SDS011;7983;50.744;7.086;2023-05-10T10:21:23;3.58;;;2.80;;
15764;SDS011;7983;50.744;7.086;2023-05-10T10:23:48;4.22;;;3.10;;
15764;SDS011;7983;50.744;7.086;2023-05-10T10:26:15;5.10;;;3.22;;
15764;SDS011;7983;50.744;7.086;2023-05-10T10:34:09;5.40;;;4.10;;
15764;SDS011;7983;50.744;7.086;2023-05-10T10:36:43;5.40;;;3.88;;
15764;SDS011;7983;50.744;7.086;2023-05-10T10:39:12;4.40;;;3.40;;
15764;SDS011;7983;50.744;7.086;2023-05-10T10:41:39;4.70;;;3.40;;
15764;SDS011;7983;50.744;7.086;2023-05-10T10:55:06;4.30;;;3.17;;
15764;SDS011;7983;50.744;7.086;2023-05-10T10:57:43;4.15;;;3.40;;
15764;SDS011;7983;50.744;7.086;2023-05-10T11:08:01;1.42;;;1.15;;
15764;SDS011;7983;50.744;7.086;2023-05-10T11:10:33;1.20;;;1.10;;
15764;SDS011;7983;50.744;7.086;2023-05-10T11:15:40;2.03;;;0.85;;
15764;SDS011;7983;50.744;7.086;2023-05-10T11:18:17;1.05;;;0.90;;
15764;SDS011;7983;50.744;7.086;2023-05-10T11:20:43;1.00;;;0.90;;
15764;SDS011;7983;50.744;7.086;2023-05-10T11:23:14;1.10;;;1.00;;
15764;SDS011;7983;50.744;7.086;2023-05-10T11:25:43;1.05;;;0.95;;
15764;SDS011;7983;50.744;7.086;2023-05-10T11:28:12;1.10;;;1.00;;
15764;SDS011;7983;50.744;7.086;2023-05-10T11:30:39;1.15;;;1.05;;
15764;SDS011;7983;50.744;7.086;2023-05-10T11:33:05;1.20;;;1.10;;
15764;SDS011;7983;50.744;7.086;2023-05-10T11:35:36;1.40;;;1.30;;
15764;SDS011;7983;50.744;7.086;2023-05-10T11:38:07;1.27;;;1.17;;
15764;SDS011;7983;50.744;7.086;2023-05-10T11:40:34;1.27;;;1.10;;
15764;SDS011;7983;50.744;7.086;2023-05-10T11:43:03;1.83;;;1.15;;
15764;SDS011;7983;50.744;7.086;2023-05-10T11:45:31;1.70;;;1.10;;
15764;SDS011;7983;50.744;7.086;2023-05-10T11:48:00;1.23;;;1.10;;
15764;SDS011;7983;50.744;7.086;2023-05-10T11:50:26;1.70;;;1.20;;
15764;SDS011;7983;50.744;7.086;2023-05-10T11:52:55;1.50;;;1.10;;
15764;SDS011;7983;50.744;7.086;2023-05-10T11:55:22;1.08;;;0.98;;
15764;SDS011;7983;50.744;7.086;2023-05-10T11:57:52;1.13;;;1.02;;
15764;SDS011;7983;50.744;7.086;2023-05-10T12:00:19;0.82;;;0.82;;
15764;SDS011;7983;50.744;7.086;2023-05-10T12:02:45;0.90;;;0.80;;
15764;SDS011;7983;50.744;7.086;2023-05-10T12:05:13;0.95;;;0.85;;
15764;SDS011;7983;50.744;7.086;2023-05-10T12:07:39;1.02;;;0.90;;
15764;SDS011;7983;50.744;7.086;2023-05-10T12:10:10;0.98;;;0.90;;
15764;SDS011;7983;50.744;7.086;2023-05-10T12:12:43;1.23;;;0.90;;
15764;SDS011;7983;50.744;7.086;2023-05-10T12:15:11;1.70;;;1.27;;
15764;SDS011;7983;50.744;7.086;2023-05-10T12:17:48;1.20;;;1.02;;
15764;SDS011;7983;50.744;7.086;2023-05-10T12:23:00;1.60;;;1.20;;
15764;SDS011;7983;50.744;7.086;2023-05-10T12:25:35;1.33;;;1.23;;
15764;SDS011;7983;50.744;7.086;2023-05-10T12:28:05;1.40;;;1.00;;
15764;SDS011;7983;50.744;7.086;2023-05-10T12:30:33;1.00;;;0.90;;
15764;SDS011;7983;50.744;7.086;2023-05-10T12:33:07;1.42;;;0.98;;
15764;SDS011;7983;50.744;7.086;2023-05-10T12:35:43;1.00;;;0.95;;
15764;SDS011;7983;50.744;7.086;2023-05-10T12:40:54;0.88;;;0.88;;
15764;SDS011;7983;50.744;7.086;2023-05-10T12:43:20;0.93;;;0.90;;
15764;SDS011;7983;50.744;7.086;2023-05-10T12:45:46;0.85;;;0.82;;
15764;SDS011;7983;50.744;7.086;2023-05-10T12:48:13;0.75;;;0.70;;
15764;SDS011;7983;50.744;7.086;2023-05-10T12:50:42;1.25;;;0.80;;
15764;SDS011;7983;50.744;7.086;2023-05-10T12:53:07;1.33;;;0.98;;
15764;SDS011;7983;50.744;7.086;2023-05-10T12:55:35;1.05;;;0.90;;
15764;SDS011;7983;50.744;7.086;2023-05-10T12:58:01;1.20;;;1.10;;
15764;SDS011;7983;50.744;7.086;2023-05-10T13:00:29;1.20;;;1.10;;
15764;SDS011;7983;50.744;7.086;2023-05-10T13:02:54;1.02;;;0.93;;
15764;SDS011;7983;50.744;7.086;2023-05-10T13:05:20;1.33;;;1.00;;
15764;SDS011;7983;50.744;7.086;2023-05-10T13:07:46;1.38;;;1.27;;
15764;SDS011;7983;50.744;7.086;2023-05-10T13:10:14;1.48;;;1.10;;
15764;SDS011;7983;50.744;7.086;2023-05-10T13:12:40;1.33;;;1.00;;
15764;SDS011;7983;50.744;7.086;2023-05-10T13:15:10;1.20;;;1.00;;
15764;SDS011;7983;50.744;7.086;2023-05-10T13:17:38;1.42;;;0.98;;
15764;SDS011;7983;50.744;7.086;2023-05-10T13:20:08;2.25;;;1.00;;
15764;SDS011;7983;50.744;7.086;2023-05-10T13:22:39;1.35;;;1.10;;
15764;SDS011;7983;50.744;7.086;2023-05-10T13:25:06;1.00;;;0.90;;
15764;SDS011;7983;50.744;7.086;2023-05-10T13:27:34;1.00;;;0.95;;
15764;SDS011;7983;50.744;7.086;2023-05-10T13:30:02;1.27;;;1.00;;
15764;SDS011;7983;50.744;7.086;2023-05-10T13:32:29;1.05;;;0.95;;
15764;SDS011;7983;50.744;7.086;2023-05-10T13:34:55;1.23;;;0.95;;
15764;SDS011;7983;50.744;7.086;2023-05-10T13:37:23;1.13;;;0.95;;
15764;SDS011;7983;50.744;7.086;2023-05-10T13:39:48;1.33;;;0.90;;
15764;SDS011;7983;50.744;7.086;2023-05-10T13:42:19;1.00;;;0.93;;
15764;SDS011;7983;50.744;7.086;2023-05-10T13:44:45;1.45;;;1.00;;
15764;SDS011;7983;50.744;7.086;2023-05-10T13:47:11;0.90;;;0.90;;
15764;SDS011;7983;50.744;7.086;2023-05-10T13:49:37;0.82;;;0.82;;
15764;SDS011;7983;50.744;7.086;2023-05-10T13:52:02;1.08;;;0.95;;
15764;SDS011;7983;50.744;7.086;2023-05-10T13:54:32;0.75;;;0.75;;
15764;SDS011;7983;50.744;7.086;2023-05-10T13:57:04;1.13;;;0.90;;
15764;SDS011;7983;50.744;7.086;2023-05-10T13:59:32;1.20;;;0.70;;
15764;SDS011;7983;50.744;7.086;2023-05-10T14:01:58;0.70;;;0.70;;
15764;SDS011;7983;50.744;7.086;2023-05-10T14:04:24;2.55;;;0.80;;
15764;SDS011;7983;50.744;7.086;2023-05-10T14:06:50;1.00;;;0.85;;
15764;SDS011;7983;50.744;7.086;2023-05-10T14:09:17;0.80;;;0.80;;
15764;SDS011;7983;50.744;7.086;2023-05-10T14:11:43;0.95;;;0.82;;
15764;SDS011;7983;50.744;7.086;2023-05-10T14:14:10;1.00;;;0.90;;
15764;SDS011;7983;50.744;7.086;2023-05-10T14:16:35;1.17;;;0.93;;
15764;SDS011;7983;50.744;7.086;2023-05-10T14:19:01;1.20;;;0.95;;
15764;SDS011;7983;50.744;7.086;2023-05-10T14:21:30;1.25;;;0.98;;
15764;SDS011;7983;50.744;7.086;2023-05-10T14:24:00;1.13;;;0.90;;
15764;SDS011;7983;50.744;7.086;2023-05-10T14:26:28;0.90;;;0.80;;
15764;SDS011;7983;50.744;7.086;2023-05-10T14:28:53;1.05;;;0.95;;
15764;SDS011;7983;50.744;7.086;2023-05-10T14:31:19;3.80;;;2.33;;
15764;SDS011;7983;50.744;7.086;2023-05-10T14:33:49;2.38;;;1.60;;
15764;SDS011;7983;50.744;7.086;2023-05-10T14:36:17;1.38;;;1.20;;
15764;SDS011;7983;50.744;7.086;2023-05-10T14:38:43;2.05;;;1.30;;
15764;SDS011;7983;50.744;7.086;2023-05-10T14:41:09;1.85;;;1.10;;
15764;SDS011;7983;50.744;7.086;2023-05-10T14:43:38;1.55;;;1.13;;
15764;SDS011;7983;50.744;7.086;2023-05-10T14:46:04;1.35;;;0.93;;
15764;SDS011;7983;50.744;7.086;2023-05-10T14:48:32;1.52;;;1.08;;
15764;SDS011;7983;50.744;7.086;2023-05-10T14:51:00;1.77;;;0.90;;
15764;SDS011;7983;50.744;7.086;2023-05-10T14:53:29;1.75;;;1.10;;
15764;SDS011;7983;50.744;7.086;2023-05-10T14:55:57;1.20;;;1.10;;
15764;SDS011;7983;50.744;7.086;2023-05-10T14:58:26;1.52;;;0.90;;
15764;SDS011;7983;50.744;7.086;2023-05-10T15:00:54;1.38;;;0.95;;
15764;SDS011;7983;50.744;7.086;2023-05-10T15:03:19;1.40;;;1.30;;
15764;SDS011;7983;50.744;7.086;2023-05-10T15:05:46;1.20;;;1.10;;
15764;SDS011;7983;50.744;7.086;2023-05-10T15:08:14;1.42;;;1.20;;
15764;SDS011;7983;50.744;7.086;2023-05-10T15:10:39;1.55;;;1.30;;
15764;SDS011;7983;50.744;7.086;2023-05-10T15:13:08;1.63;;;1.42;;
15764;SDS011;7983;50.744;7.086;2023-05-10T15:15:33;2.30;;;1.30;;
15764;SDS011;7983;50.744;7.086;2023-05-10T15:17:59;2.05;;;1.58;;
15764;SDS011;7983;50.744;7.086;2023-05-10T15:20:26;1.50;;;1.40;;
15764;SDS011;7983;50.744;7.086;2023-05-10T15:22:52;1.33;;;1.23;;
15764;SDS011;7983;50.744;7.086;2023-05-10T15:25:19;2.25;;;1.40;;
15764;SDS011;7983;50.744;7.086;2023-05-10T15:27:48;1.88;;;1.50;;
15764;SDS011;7983;50.744;7.086;2023-05-10T15:30:14;1.55;;;1.45;;
15764;SDS011;7983;50.744;7.086;2023-05-10T15:32:42;1.45;;;1.35;;
15764;SDS011;7983;50.744;7.086;2023-05-10T15:35:07;1.30;;;1.20;;
15764;SDS011;7983;50.744;7.086;2023-05-10T15:37:36;1.30;;;1.20;;
15764;SDS011;7983;50.744;7.086;2023-05-10T15:40:04;1.50;;;1.15;;
15764;SDS011;7983;50.744;7.086;2023-05-10T15:42:33;4.35;;;2.03;;
15764;SDS011;7983;50.744;7.086;2023-05-10T15:45:00;3.25;;;1.80;;
15764;SDS011;7983;50.744;7.086;2023-05-10T15:47:29;1.83;;;1.38;;
15764;SDS011;7983;50.744;7.086;2023-05-10T15:49:55;1.60;;;1.20;;
15764;SDS011;7983;50.744;7.086;2023-05-10T15:52:20;3.13;;;1.23;;
15764;SDS011;7983;50.744;7.086;2023-05-10T15:54:47;1.48;;;1.08;;
15764;SDS011;7983;50.744;7.086;2023-05-10T15:57:13;1.55;;;1.20;;
15764;SDS011;7983;50.744;7.086;2023-05-10T15:59:39;1.98;;;1.45;;
15764;SDS011;7983;50.744;7.086;2023-05-10T16:02:05;2.55;;;1.50;;